Terminal Aerodrome Forecast
Issued by NWS

Home | Current Version | Previous Version | Text Only | Print | Product List | Glossary On
Versions: 1 2 3 4 5 6 7 8 9 10 11 12 13 14
000
FTUS44 KEPZ 221100 RRA
TAFLRU
TAF
KLRU 221148Z 2212/2312 29007KT P6SM -SHRA SCT025 OVC060
      TEMPO 2212/2216 5SM SHRA FEW015 OVC030
     FM221800 28006KT P6SM -SHRA SCT040 BKN070
      TEMPO 2221/2301 -TSRA BKN040CB
     FM230600 23008KT P6SM FEW050 BKN120=

USA.gov is the U.S. government's official web portal to all federal, state and local government web resources and services.